createdAt,value
2023-02-03T00:00:49.963Z,9.73
2023-02-03T00:03:16.929Z,8.48
2023-02-03T00:05:44.242Z,8.50
2023-02-03T00:08:11.402Z,7.80
2023-02-03T00:10:39.905Z,9.05
2023-02-03T00:13:08.600Z,8.77
2023-02-03T00:15:35.493Z,7.53
2023-02-03T00:18:22.504Z,8.68
2023-02-03T00:21:23.520Z,6.93
2023-02-03T00:24:04.219Z,8.45
2023-02-03T00:26:31.146Z,8.20
2023-02-03T00:28:59.713Z,10.57
2023-02-03T00:31:26.709Z,8.43
2023-02-03T00:34:13.535Z,8.45
2023-02-03T00:36:59.156Z,8.73
2023-02-03T00:39:26.012Z,10.02
2023-02-03T00:41:52.911Z,8.70
2023-02-03T00:44:19.737Z,8.45
2023-02-03T00:46:46.588Z,8.65
2023-02-03T00:49:13.405Z,8.65
2023-02-03T00:52:00.565Z,11.05
2023-02-03T00:54:41.092Z,7.43
2023-02-03T00:57:28.530Z,7.60
2023-02-03T01:00:10.005Z,7.82
2023-02-03T01:02:38.296Z,8.55
2023-02-03T01:05:05.862Z,9.23
2023-02-03T01:07:33.463Z,8.50
2023-02-03T01:10:00.507Z,8.40
2023-02-03T01:12:30.127Z,8.20
2023-02-03T01:14:57.166Z,10.43
2023-02-03T01:17:24.604Z,9.05
2023-02-03T01:20:11.555Z,7.35
2023-02-03T01:23:12.531Z,8.32
2023-02-03T01:26:06.604Z,8.43
2023-02-03T01:28:34.413Z,9.20
2023-02-03T01:31:10.843Z,9.88
2023-02-03T01:33:48.631Z,9.70
2023-02-03T01:36:49.580Z,9.48
2023-02-03T01:39:22.429Z,8.60
2023-02-03T01:41:49.312Z,9.52
2023-02-03T01:44:45.778Z,8.40
2023-02-03T01:47:15.866Z,8.15
2023-02-03T01:50:19.662Z,11.50
2023-02-03T01:53:04.789Z,8.63
2023-02-03T01:55:55.556Z,9.38
2023-02-03T01:58:40.091Z,8.85
2023-02-03T02:01:07.391Z,10.15
2023-02-03T02:03:46.019Z,10.98
2023-02-03T02:06:14.532Z,10.40
2023-02-03T02:08:45.039Z,6.72
2023-02-03T02:11:12.101Z,8.27
2023-02-03T02:13:43.508Z,8.20
2023-02-03T02:16:16.357Z,9.68
2023-02-03T02:19:10.660Z,9.90
2023-02-03T02:22:03.697Z,9.05
2023-02-03T02:25:18.596Z,7.68
2023-02-03T02:28:32.579Z,7.97
2023-02-03T02:31:51.029Z,8.05
2023-02-03T02:37:39.961Z,7.97
2023-02-03T02:40:12.933Z,8.90
2023-02-03T02:42:44.059Z,7.05
2023-02-03T02:45:17.538Z,8.25
2023-02-03T02:47:45.397Z,9.10
2023-02-03T02:50:27.161Z,7.78
2023-02-03T02:52:55.715Z,9.45
2023-02-03T02:55:45.771Z,9.45
2023-02-03T02:58:49.598Z,10.18
2023-02-03T03:01:30.335Z,7.85
2023-02-03T03:04:00.414Z,7.50
2023-02-03T03:06:40.619Z,7.95
2023-02-03T03:09:21.991Z,8.18
2023-02-03T03:11:55.015Z,10.07
2023-02-03T03:14:26.610Z,8.27
2023-02-03T03:17:02.676Z,8.52
2023-02-03T03:19:42.037Z,7.80
2023-02-03T03:22:11.722Z,9.68
2023-02-03T03:24:44.004Z,8.23
2023-02-03T03:27:36.706Z,8.68
2023-02-03T03:30:42.658Z,10.40
2023-02-03T03:33:23.847Z,9.43
2023-02-03T03:36:45.615Z,10.30
2023-02-03T03:39:28.173Z,8.00
2023-02-03T03:42:04.813Z,8.85
2023-02-03T03:44:39.605Z,8.55
2023-02-03T03:47:14.783Z,9.15
2023-02-03T03:49:45.945Z,9.95
2023-02-03T03:52:18.727Z,9.75
2023-02-03T03:54:48.024Z,8.63
2023-02-03T03:57:40.752Z,9.88
2023-02-03T04:00:38.031Z,7.97
2023-02-03T04:03:45.031Z,9.20
2023-02-03T04:06:26.283Z,8.38
2023-02-03T04:08:54.114Z,9.13
2023-02-03T04:11:40.568Z,8.95
2023-02-03T04:14:08.366Z,9.27
2023-02-03T04:16:35.438Z,7.45
2023-02-03T04:19:02.321Z,7.95
2023-02-03T04:21:30.225Z,10.07
2023-02-03T04:23:57.124Z,9.43
2023-02-03T04:26:24.120Z,10.93
2023-02-03T04:28:51.010Z,9.98
2023-02-03T04:31:17.978Z,8.55
2023-02-03T04:34:04.670Z,8.50
2023-02-03T04:37:05.809Z,13.45
2023-02-03T04:40:07.661Z,9.77
2023-02-03T04:42:41.382Z,10.77
2023-02-03T04:45:10.366Z,9.15
2023-02-03T04:47:37.941Z,10.15
2023-02-03T04:50:05.468Z,9.00
2023-02-03T04:52:32.330Z,7.70
2023-02-03T04:54:59.148Z,8.77
2023-02-03T04:57:46.751Z,9.85
2023-02-03T05:00:47.673Z,7.85
2023-02-03T05:03:28.268Z,8.20
2023-02-03T05:05:57.043Z,7.35
2023-02-03T05:08:24.461Z,6.95
2023-02-03T05:10:51.343Z,6.88
2023-02-03T05:13:18.202Z,6.78
2023-02-03T05:15:45.153Z,7.97
2023-02-03T05:18:11.971Z,7.15
2023-02-03T05:20:39.029Z,7.70
2023-02-03T05:23:05.851Z,6.28
2023-02-03T05:25:32.770Z,6.95
2023-02-03T05:27:59.906Z,6.75
2023-02-03T05:30:27.028Z,6.50
2023-02-03T05:32:54.020Z,6.88
2023-02-03T05:35:40.690Z,7.35
2023-02-03T05:38:21.879Z,7.47
2023-02-03T05:41:07.988Z,7.72
2023-02-03T05:43:35.623Z,6.35
2023-02-03T05:46:07.051Z,6.60
2023-02-03T05:48:34.865Z,5.75
2023-02-03T05:51:02.323Z,7.32
2023-02-03T05:53:29.267Z,5.68
2023-02-03T05:56:16.688Z,7.10
2023-02-03T05:59:18.731Z,7.30
2023-02-03T06:02:19.684Z,7.00
2023-02-03T06:05:15.115Z,7.18
2023-02-03T06:07:41.939Z,6.15
2023-02-03T06:10:09.236Z,5.85
2023-02-03T06:12:38.078Z,8.57
2023-02-03T06:15:24.679Z,6.68
2023-02-03T06:18:25.713Z,8.35
2023-02-03T06:21:06.585Z,6.57
2023-02-03T06:23:33.465Z,6.40
2023-02-03T06:26:00.554Z,7.60
2023-02-03T06:28:27.529Z,6.25
2023-02-03T06:30:54.487Z,6.57
2023-02-03T06:33:21.703Z,6.03
2023-02-03T06:36:08.720Z,6.90
2023-02-03T06:39:09.713Z,6.60
2023-02-03T06:41:51.849Z,8.68
2023-02-03T06:44:19.055Z,9.93
2023-02-03T06:47:05.713Z,9.75
2023-02-03T06:50:07.506Z,13.05
2023-02-03T06:52:59.513Z,11.63
2023-02-03T06:55:46.854Z,10.27
2023-02-03T06:58:27.448Z,10.65
2023-02-03T07:00:57.998Z,9.95
2023-02-03T07:03:25.235Z,11.35
2023-02-03T07:05:52.136Z,8.82
2023-02-03T07:08:19.180Z,11.55
2023-02-03T07:11:09.723Z,10.30
2023-02-03T07:14:10.867Z,9.07
2023-02-03T07:16:51.215Z,9.38
2023-02-03T07:19:18.044Z,11.40
2023-02-03T07:21:44.947Z,12.18
2023-02-03T07:24:12.003Z,10.32
2023-02-03T07:26:39.420Z,10.13
2023-02-03T07:29:06.684Z,11.05
2023-02-03T07:31:34.105Z,10.02
2023-02-03T07:34:21.737Z,10.20
2023-02-03T07:37:02.324Z,10.25
2023-02-03T07:39:29.412Z,10.13
2023-02-03T07:41:56.440Z,14.25
2023-02-03T07:44:24.161Z,13.48
2023-02-03T07:46:51.405Z,15.10
2023-02-03T07:49:18.322Z,13.65
2023-02-03T07:51:45.327Z,14.30
2023-02-03T07:54:32.809Z,15.60
2023-02-03T07:57:33.772Z,25.60
2023-02-03T08:00:34.038Z,34.30
2023-02-03T08:03:01.040Z,38.42
2023-02-03T08:05:28.269Z,34.63
2023-02-03T08:07:55.128Z,59.80
2023-02-03T08:10:41.774Z,62.03
2023-02-03T08:13:42.823Z,60.35
2023-02-03T08:16:43.779Z,59.15
2023-02-03T08:19:12.732Z,65.90
2023-02-03T08:21:39.615Z,61.10
2023-02-03T08:24:06.871Z,60.50
2023-02-03T08:26:54.761Z,61.83
2023-02-03T08:29:35.488Z,57.03
2023-02-03T08:32:03.231Z,59.20
2023-02-03T08:34:51.783Z,58.42
2023-02-03T08:37:52.775Z,62.45
2023-02-03T08:40:33.353Z,58.15
2023-02-03T08:43:20.802Z,69.15
2023-02-03T08:46:06.496Z,78.95
2023-02-03T08:48:34.226Z,79.20
2023-02-03T08:51:30.823Z,76.20
2023-02-03T08:54:12.477Z,80.15
2023-02-03T08:56:59.799Z,77.97
2023-02-03T08:59:42.230Z,76.60
2023-02-03T09:02:14.270Z,89.55
2023-02-03T09:04:41.181Z,99.68
2023-02-03T09:07:09.038Z,94.07
2023-02-03T09:09:35.911Z,95.55
2023-02-03T09:12:05.477Z,105.13
2023-02-03T09:14:33.837Z,102.10
2023-02-03T09:17:03.824Z,97.47
2023-02-03T09:19:33.290Z,103.13
2023-02-03T09:22:01.367Z,102.35
2023-02-03T09:24:28.520Z,110.90
2023-02-03T09:26:56.168Z,113.53
2023-02-03T09:29:23.313Z,111.72
2023-02-03T09:32:15.496Z,118.22
2023-02-03T09:35:16.807Z,111.50
2023-02-03T09:38:17.789Z,107.47
2023-02-03T09:41:24.960Z,108.32
2023-02-03T09:44:18.936Z,108.00
2023-02-03T09:46:55.748Z,104.65
2023-02-03T09:49:27.136Z,101.68
2023-02-03T09:52:08.728Z,98.95
2023-02-03T09:54:54.597Z,98.85
2023-02-03T09:57:44.863Z,99.63
2023-02-03T10:00:35.308Z,92.03
2023-02-03T10:03:18.173Z,86.75
2023-02-03T10:06:00.177Z,90.95
2023-02-03T10:08:29.964Z,97.03
2023-02-03T10:11:30.813Z,85.85
2023-02-03T10:14:03.749Z,97.07
2023-02-03T10:17:07.913Z,79.78
2023-02-03T10:19:54.882Z,79.80
2023-02-03T10:22:28.198Z,71.80
2023-02-03T10:25:00.653Z,87.68
2023-02-03T10:27:29.203Z,93.65
2023-02-03T10:29:59.325Z,86.25
2023-02-03T10:32:27.727Z,85.22
2023-02-03T10:35:15.274Z,75.57
2023-02-03T10:38:19.844Z,86.65
2023-02-03T10:41:01.088Z,78.22
2023-02-03T10:43:50.005Z,69.65
2023-02-03T10:46:33.565Z,65.30
2023-02-03T10:49:01.778Z,56.08
2023-02-03T10:51:35.171Z,66.55
2023-02-03T10:54:02.090Z,63.03
2023-02-03T10:56:51.886Z,67.72
2023-02-03T10:59:36.469Z,66.20
2023-02-03T11:02:38.921Z,63.30
2023-02-03T11:05:25.110Z,64.50
2023-02-03T11:07:53.294Z,61.35
2023-02-03T11:10:26.769Z,66.10
2023-02-03T11:13:32.524Z,66.25
2023-02-03T11:16:05.962Z,70.78
2023-02-03T11:18:40.420Z,74.38
2023-02-03T11:21:17.804Z,69.00
2023-02-03T11:24:26.112Z,70.43
2023-02-03T11:27:04.788Z,66.18
2023-02-03T11:29:57.904Z,66.40
2023-02-03T11:33:01.854Z,76.50
2023-02-03T11:36:16.864Z,73.40
2023-02-03T11:39:35.745Z,66.18
2023-02-03T11:42:03.587Z,67.15
2023-02-03T11:44:33.703Z,69.03
2023-02-03T11:47:04.845Z,65.90
2023-02-03T11:49:52.470Z,64.13
2023-02-03T11:53:04.174Z,59.45
2023-02-03T11:56:41.909Z,58.42
2023-02-03T11:59:45.683Z,63.28
2023-02-03T12:02:37.647Z,53.65
2023-02-03T12:05:13.324Z,57.80
2023-02-03T12:07:48.927Z,63.80
2023-02-03T12:10:24.835Z,58.78
2023-02-03T12:13:48.045Z,58.63
2023-02-03T12:17:00.846Z,58.42
2023-02-03T12:19:38.899Z,49.33
2023-02-03T12:22:23.673Z,51.05
2023-02-03T12:25:21.488Z,46.45
2023-02-03T12:28:33.386Z,65.90
2023-02-03T12:31:24.886Z,60.63
2023-02-03T12:34:37.904Z,57.13
2023-02-03T12:37:37.439Z,40.88
2023-02-03T12:40:18.943Z,41.42
2023-02-03T12:43:12.915Z,46.05
2023-02-03T12:46:21.006Z,45.28
2023-02-03T12:49:40.895Z,43.97
2023-02-03T12:52:22.668Z,45.90
2023-02-03T12:55:28.938Z,50.38
2023-02-03T12:58:32.057Z,30.30
2023-02-03T13:01:08.574Z,45.85
2023-02-03T13:03:42.886Z,45.92
2023-02-03T13:06:18.778Z,46.10
2023-02-03T13:09:14.721Z,45.85
2023-02-03T13:12:06.857Z,41.83
2023-02-03T13:14:50.028Z,29.77
2023-02-03T13:18:10.970Z,28.00
2023-02-03T13:20:52.032Z,28.63
2023-02-03T13:23:19.005Z,30.15
2023-02-03T13:26:19.958Z,22.25
2023-02-03T13:29:37.006Z,25.30
2023-02-03T13:33:23.962Z,19.15
2023-02-03T13:36:42.944Z,17.70
2023-02-03T13:40:14.069Z,17.58
2023-02-03T13:43:00.239Z,16.38
2023-02-03T13:45:29.261Z,16.15
2023-02-03T13:48:35.965Z,14.65
2023-02-03T13:51:43.944Z,14.93
2023-02-03T13:54:44.952Z,15.32
2023-02-03T13:57:48.945Z,15.52
2023-02-03T14:00:44.674Z,16.13
2023-02-03T14:03:26.800Z,16.25
2023-02-03T14:05:59.485Z,18.23
2023-02-03T14:08:26.440Z,15.43
2023-02-03T14:11:50.991Z,16.60
2023-02-03T14:14:34.861Z,15.55
2023-02-03T14:18:04.984Z,17.17
2023-02-03T14:20:49.031Z,17.25
2023-02-03T14:23:42.974Z,16.95
2023-02-03T14:26:42.461Z,17.70
2023-02-03T14:29:30.245Z,16.63
2023-02-03T14:31:58.950Z,17.10
2023-02-03T14:34:53.985Z,17.40
2023-02-03T14:37:35.906Z,17.33
2023-02-03T14:40:44.101Z,15.90
2023-02-03T14:43:29.374Z,17.83
2023-02-03T14:46:48.002Z,16.48
2023-02-03T14:50:16.085Z,17.25
2023-02-03T14:53:23.929Z,17.27
2023-02-03T14:56:10.977Z,16.38
2023-02-03T14:58:58.760Z,17.85
2023-02-03T15:04:35.041Z,15.95
2023-02-03T15:07:59.223Z,16.25
2023-02-03T15:10:58.986Z,15.52
2023-02-03T15:13:39.569Z,15.77
2023-02-03T15:16:31.987Z,16.17
2023-02-03T15:19:37.012Z,15.10
2023-02-03T15:25:18.156Z,14.35
2023-02-03T15:27:45.034Z,15.65
2023-02-03T15:30:30.915Z,13.27
2023-02-03T15:33:45.008Z,15.70
2023-02-03T15:36:57.016Z,19.70
2023-02-03T15:40:14.015Z,16.15
2023-02-03T15:43:02.508Z,17.98
2023-02-03T15:45:55.538Z,16.95
2023-02-03T15:48:36.750Z,18.83
2023-02-03T15:51:20.082Z,21.55
2023-02-03T15:54:37.329Z,20.53
2023-02-03T15:57:44.573Z,21.63
2023-02-03T16:00:38.465Z,23.17
2023-02-03T16:03:16.491Z,23.42
2023-02-03T16:06:07.329Z,24.10
2023-02-03T16:08:49.023Z,21.77
2023-02-03T16:11:27.123Z,23.58
2023-02-03T16:14:00.202Z,24.67
2023-02-03T16:17:04.402Z,23.60
2023-02-03T16:19:51.344Z,22.23
2023-02-03T16:22:36.145Z,23.60
2023-02-03T16:25:44.074Z,24.08
2023-02-03T16:28:43.589Z,23.13
2023-02-03T16:31:34.229Z,39.88
2023-02-03T16:34:57.023Z,65.07
2023-02-03T16:38:03.021Z,71.40
2023-02-03T16:41:10.355Z,66.95
2023-02-03T16:44:09.171Z,73.50
2023-02-03T16:46:56.047Z,74.95
2023-02-03T16:49:41.432Z,74.47
2023-02-03T16:52:08.892Z,79.32
2023-02-03T16:54:56.059Z,78.90
2023-02-03T16:57:58.053Z,74.60
2023-02-03T17:00:41.912Z,70.40
2023-02-03T17:03:31.084Z,76.35
2023-02-03T17:06:12.919Z,73.97
2023-02-03T17:08:41.131Z,70.20
2023-02-03T17:11:18.643Z,82.18
2023-02-03T17:13:46.617Z,84.75
2023-02-03T17:16:17.533Z,84.88
2023-02-03T17:18:46.423Z,81.75
2023-02-03T17:21:16.832Z,88.00
2023-02-03T17:23:43.958Z,83.00
2023-02-03T17:26:10.944Z,83.38
2023-02-03T17:28:43.212Z,67.15
2023-02-03T17:31:16.202Z,83.35
2023-02-03T17:34:06.077Z,84.97
2023-02-03T17:37:09.064Z,70.05
2023-02-03T17:54:06.610Z,87.55
2023-02-03T17:56:56.064Z,86.13
2023-02-03T18:00:01.065Z,71.25
2023-02-03T18:03:06.099Z,81.03
2023-02-03T18:06:09.089Z,82.53
2023-02-03T18:08:50.814Z,72.78
2023-02-03T18:11:19.160Z,90.00
2023-02-03T18:13:48.474Z,78.00
2023-02-03T18:16:39.118Z,80.05
2023-02-03T18:19:27.107Z,77.57
2023-02-03T18:21:54.010Z,80.60
2023-02-03T18:24:24.979Z,84.25
2023-02-03T18:26:52.104Z,81.10
2023-02-03T18:29:19.418Z,81.60
2023-02-03T18:31:47.496Z,80.45
2023-02-03T18:34:15.875Z,76.32
2023-02-03T18:36:42.911Z,79.15
2023-02-03T18:39:12.281Z,76.18
2023-02-03T18:42:00.091Z,83.50
2023-02-03T18:44:41.383Z,81.43
2023-02-03T18:47:28.140Z,85.53
2023-02-03T18:50:08.999Z,80.45
2023-02-03T18:52:36.453Z,86.30
2023-02-03T18:55:24.099Z,85.57
2023-02-03T18:58:26.109Z,79.70
2023-02-03T19:01:07.033Z,80.20
2023-02-03T19:03:34.584Z,81.88
2023-02-03T19:06:23.133Z,84.78
2023-02-03T19:09:26.500Z,71.75
2023-02-03T19:12:06.750Z,80.43
2023-02-03T19:14:35.226Z,79.10
2023-02-03T19:17:02.791Z,83.45
2023-02-03T19:19:50.148Z,86.95
2023-02-03T19:22:32.000Z,83.60
2023-02-03T19:24:58.962Z,88.30
2023-02-03T19:27:26.073Z,84.18
2023-02-03T19:29:53.855Z,84.20
2023-02-03T19:32:21.624Z,81.47
2023-02-03T19:34:50.872Z,85.78
2023-02-03T19:37:19.894Z,85.22
2023-02-03T19:39:52.522Z,82.53
2023-02-03T19:42:19.643Z,90.88
2023-02-03T19:44:46.797Z,81.10
2023-02-03T19:47:13.983Z,84.63
2023-02-03T19:49:41.064Z,82.90
2023-02-03T19:52:11.522Z,83.40
2023-02-03T19:55:00.140Z,82.18
2023-02-03T19:58:01.134Z,87.13
2023-02-03T20:00:48.934Z,79.43
2023-02-03T20:03:37.160Z,74.63
2023-02-03T20:06:41.299Z,77.57
2023-02-03T20:09:42.126Z,73.17
2023-02-03T20:12:43.151Z,69.47
2023-02-03T20:15:23.802Z,58.92
2023-02-03T20:17:50.768Z,57.88
2023-02-03T20:20:19.776Z,49.65
2023-02-03T20:22:48.040Z,49.08
2023-02-03T20:25:35.160Z,49.88
2023-02-03T20:28:17.714Z,38.65
2023-02-03T20:30:45.675Z,36.38
2023-02-03T20:33:13.292Z,39.08
2023-02-03T20:35:40.182Z,34.85
2023-02-03T20:38:27.196Z,36.35
2023-02-03T20:41:12.288Z,36.35
2023-02-03T20:43:59.188Z,36.78
2023-02-03T20:46:57.905Z,26.38
2023-02-03T20:49:24.991Z,30.10
2023-02-03T20:52:12.176Z,29.67
2023-02-03T20:55:14.361Z,28.13
2023-02-03T20:58:15.227Z,31.25
2023-02-03T21:01:16.278Z,28.80
2023-02-03T21:04:35.201Z,27.02
2023-02-03T21:07:18.829Z,29.08
2023-02-03T21:10:07.193Z,29.48
2023-02-03T21:12:49.751Z,29.98
2023-02-03T21:15:23.305Z,29.77
2023-02-03T21:17:50.767Z,33.00
2023-02-03T21:20:28.562Z,33.58
2023-02-03T21:23:21.282Z,51.25
2023-02-03T21:26:40.233Z,37.22
2023-02-03T21:29:35.728Z,40.75
2023-02-03T21:32:11.420Z,49.60
2023-02-03T21:34:42.727Z,53.97
2023-02-03T21:37:38.221Z,58.80
2023-02-03T21:40:34.965Z,60.95
2023-02-03T21:43:03.384Z,58.63
2023-02-03T21:45:36.342Z,62.92
2023-02-03T21:48:22.903Z,59.22
2023-02-03T21:50:49.946Z,57.58
2023-02-03T21:53:27.820Z,64.53
2023-02-03T21:56:36.232Z,61.63
2023-02-03T21:59:40.198Z,58.17
2023-02-03T22:02:44.066Z,62.00
2023-02-03T22:05:15.841Z,59.45
2023-02-03T22:07:42.920Z,66.07
2023-02-03T22:10:10.000Z,59.70
2023-02-03T22:12:36.853Z,62.53
2023-02-03T22:15:03.987Z,61.15
2023-02-03T22:17:31.033Z,56.10
2023-02-03T22:19:57.854Z,57.92
2023-02-03T22:22:45.220Z,62.95
2023-02-03T22:25:46.248Z,58.15
2023-02-03T22:28:47.228Z,59.50
2023-02-03T22:31:20.256Z,60.50
2023-02-03T22:34:07.233Z,58.95
2023-02-03T22:36:47.930Z,54.58
2023-02-03T22:39:35.224Z,56.88
2023-02-03T22:42:17.586Z,53.45
2023-02-03T22:44:44.501Z,49.83
2023-02-03T22:47:11.446Z,46.83
2023-02-03T22:49:38.554Z,49.35
2023-02-03T22:52:25.233Z,38.58
2023-02-03T22:55:07.625Z,28.52
2023-02-03T22:57:54.304Z,30.42
2023-02-03T23:00:35.463Z,30.55
2023-02-03T23:03:22.335Z,43.35
2023-02-03T23:06:07.737Z,51.00
2023-02-03T23:08:54.251Z,51.53
2023-02-03T23:11:34.754Z,51.40
2023-02-03T23:14:01.788Z,49.78
2023-02-03T23:16:28.732Z,52.15
2023-02-03T23:18:55.648Z,49.70
2023-02-03T23:21:22.468Z,51.83
2023-02-03T23:23:50.653Z,43.63
2023-02-03T23:26:17.509Z,46.17
2023-02-03T23:28:44.466Z,48.47
2023-02-03T23:31:11.519Z,51.75
2023-02-03T23:34:17.282Z,48.47
2023-02-03T23:37:18.328Z,23.38
2023-02-03T23:39:58.893Z,15.27
2023-02-03T23:42:25.969Z,19.25
2023-02-03T23:45:14.286Z,14.88
2023-02-03T23:47:54.932Z,13.73
2023-02-03T23:50:22.099Z,11.68
2023-02-03T23:52:49.068Z,10.18
2023-02-03T23:55:37.399Z,10.40
2023-02-03T23:58:38.334Z,11.70
